sensor_id;sensor_type;location;lat;lon;timestamp;P1;durP1;ratioP1;P2;durP2;ratioP2
44440;SDS011;30146;52.268;20.944;2023-08-31T00:00:32;11.90;;;7.90;;
44440;SDS011;30146;52.268;20.944;2023-08-31T00:03:01;12.20;;;8.20;;
44440;SDS011;30146;52.268;20.944;2023-08-31T00:05:29;8.40;;;7.40;;
44440;SDS011;30146;52.268;20.944;2023-08-31T00:07:58;8.10;;;7.10;;
44440;SDS011;30146;52.268;20.944;2023-08-31T00:10:26;11.30;;;7.40;;
44440;SDS011;30146;52.268;20.944;2023-08-31T00:12:56;9.60;;;6.80;;
44440;SDS011;30146;52.268;20.944;2023-08-31T00:15:24;9.00;;;6.60;;
44440;SDS011;30146;52.268;20.944;2023-08-31T00:17:55;9.70;;;6.90;;
44440;SDS011;30146;52.268;20.944;2023-08-31T00:20:23;8.80;;;7.00;;
44440;SDS011;30146;52.268;20.944;2023-08-31T00:22:53;9.10;;;7.00;;
44440;SDS011;30146;52.268;20.944;2023-08-31T00:25:21;6.90;;;6.10;;
44440;SDS011;30146;52.268;20.944;2023-08-31T00:27:50;13.60;;;6.20;;
44440;SDS011;30146;52.268;20.944;2023-08-31T00:30:20;10.00;;;6.80;;
44440;SDS011;30146;52.268;20.944;2023-08-31T00:32:52;9.30;;;6.40;;
44440;SDS011;30146;52.268;20.944;2023-08-31T00:35:21;9.60;;;6.30;;
44440;SDS011;30146;52.268;20.944;2023-08-31T00:37:50;7.80;;;6.20;;
44440;SDS011;30146;52.268;20.944;2023-08-31T00:40:18;7.00;;;5.60;;
44440;SDS011;30146;52.268;20.944;2023-08-31T00:42:47;7.10;;;5.80;;
44440;SDS011;30146;52.268;20.944;2023-08-31T00:45:15;8.10;;;6.90;;
44440;SDS011;30146;52.268;20.944;2023-08-31T00:47:44;6.40;;;5.80;;
44440;SDS011;30146;52.268;20.944;2023-08-31T00:50:14;7.50;;;6.00;;
44440;SDS011;30146;52.268;20.944;2023-08-31T00:52:43;8.20;;;5.90;;
44440;SDS011;30146;52.268;20.944;2023-08-31T00:55:11;8.10;;;6.20;;
44440;SDS011;30146;52.268;20.944;2023-08-31T00:57:40;8.00;;;6.40;;
44440;SDS011;30146;52.268;20.944;2023-08-31T01:00:10;8.40;;;6.10;;
44440;SDS011;30146;52.268;20.944;2023-08-31T01:02:43;7.10;;;6.40;;
44440;SDS011;30146;52.268;20.944;2023-08-31T01:05:22;7.30;;;5.90;;
44440;SDS011;30146;52.268;20.944;2023-08-31T01:07:58;9.20;;;6.40;;
44440;SDS011;30146;52.268;20.944;2023-08-31T01:10:46;7.20;;;6.50;;
44440;SDS011;30146;52.268;20.944;2023-08-31T01:13:26;9.60;;;5.50;;
44440;SDS011;30146;52.268;20.944;2023-08-31T01:16:09;8.90;;;6.30;;
44440;SDS011;30146;52.268;20.944;2023-08-31T01:18:38;6.90;;;6.20;;
44440;SDS011;30146;52.268;20.944;2023-08-31T01:21:17;10.50;;;6.20;;
44440;SDS011;30146;52.268;20.944;2023-08-31T01:23:52;10.30;;;5.30;;
44440;SDS011;30146;52.268;20.944;2023-08-31T01:26:21;6.70;;;5.30;;
44440;SDS011;30146;52.268;20.944;2023-08-31T01:28:51;8.30;;;5.30;;
44440;SDS011;30146;52.268;20.944;2023-08-31T01:31:22;8.30;;;6.40;;
44440;SDS011;30146;52.268;20.944;2023-08-31T01:33:51;7.20;;;6.40;;
44440;SDS011;30146;52.268;20.944;2023-08-31T01:36:23;6.20;;;5.60;;
44440;SDS011;30146;52.268;20.944;2023-08-31T01:38:55;6.90;;;6.10;;
44440;SDS011;30146;52.268;20.944;2023-08-31T01:41:42;6.70;;;5.40;;
44440;SDS011;30146;52.268;20.944;2023-08-31T01:44:15;6.50;;;5.90;;
44440;SDS011;30146;52.268;20.944;2023-08-31T01:46:46;7.40;;;5.60;;
44440;SDS011;30146;52.268;20.944;2023-08-31T01:49:20;7.40;;;5.10;;
44440;SDS011;30146;52.268;20.944;2023-08-31T01:51:50;6.80;;;6.10;;
44440;SDS011;30146;52.268;20.944;2023-08-31T01:54:18;6.80;;;5.90;;
44440;SDS011;30146;52.268;20.944;2023-08-31T01:56:46;7.70;;;5.60;;
44440;SDS011;30146;52.268;20.944;2023-08-31T01:59:15;7.50;;;5.90;;
44440;SDS011;30146;52.268;20.944;2023-08-31T02:01:43;7.20;;;5.70;;
44440;SDS011;30146;52.268;20.944;2023-08-31T02:04:11;7.30;;;5.80;;
44440;SDS011;30146;52.268;20.944;2023-08-31T02:06:39;9.00;;;5.00;;
44440;SDS011;30146;52.268;20.944;2023-08-31T02:09:08;8.20;;;5.40;;
44440;SDS011;30146;52.268;20.944;2023-08-31T02:11:36;5.90;;;5.30;;
44440;SDS011;30146;52.268;20.944;2023-08-31T02:14:05;9.40;;;5.80;;
44440;SDS011;30146;52.268;20.944;2023-08-31T02:16:34;6.50;;;5.80;;
44440;SDS011;30146;52.268;20.944;2023-08-31T02:19:03;8.40;;;5.10;;
44440;SDS011;30146;52.268;20.944;2023-08-31T02:21:31;8.10;;;5.60;;
44440;SDS011;30146;52.268;20.944;2023-08-31T02:23:59;6.30;;;5.70;;
44440;SDS011;30146;52.268;20.944;2023-08-31T02:26:28;7.00;;;5.70;;
44440;SDS011;30146;52.268;20.944;2023-08-31T02:28:56;6.10;;;5.30;;
44440;SDS011;30146;52.268;20.944;2023-08-31T02:31:26;9.60;;;6.30;;
44440;SDS011;30146;52.268;20.944;2023-08-31T02:33:54;8.40;;;5.40;;
44440;SDS011;30146;52.268;20.944;2023-08-31T02:36:22;6.70;;;4.60;;
44440;SDS011;30146;52.268;20.944;2023-08-31T02:38:51;6.00;;;5.50;;
44440;SDS011;30146;52.268;20.944;2023-08-31T02:41:19;6.70;;;6.00;;
44440;SDS011;30146;52.268;20.944;2023-08-31T02:43:50;6.20;;;5.60;;
44440;SDS011;30146;52.268;20.944;2023-08-31T02:46:19;6.70;;;6.00;;
44440;SDS011;30146;52.268;20.944;2023-08-31T02:48:47;6.40;;;5.70;;
44440;SDS011;30146;52.268;20.944;2023-08-31T02:51:17;8.10;;;5.60;;
44440;SDS011;30146;52.268;20.944;2023-08-31T02:53:45;6.50;;;5.60;;
44440;SDS011;30146;52.268;20.944;2023-08-31T02:56:13;7.90;;;5.90;;
44440;SDS011;30146;52.268;20.944;2023-08-31T02:58:42;9.70;;;5.80;;
44440;SDS011;30146;52.268;20.944;2023-08-31T03:01:11;6.10;;;5.50;;
44440;SDS011;30146;52.268;20.944;2023-08-31T03:03:44;10.30;;;6.00;;
44440;SDS011;30146;52.268;20.944;2023-08-31T03:06:13;8.10;;;6.20;;
44440;SDS011;30146;52.268;20.944;2023-08-31T03:08:42;6.20;;;5.60;;
44440;SDS011;30146;52.268;20.944;2023-08-31T03:11:11;6.20;;;5.60;;
44440;SDS011;30146;52.268;20.944;2023-08-31T03:13:41;5.80;;;5.30;;
44440;SDS011;30146;52.268;20.944;2023-08-31T03:16:11;6.60;;;5.80;;
44440;SDS011;30146;52.268;20.944;2023-08-31T03:18:41;6.90;;;5.30;;
44440;SDS011;30146;52.268;20.944;2023-08-31T03:21:10;5.10;;;4.70;;
44440;SDS011;30146;52.268;20.944;2023-08-31T03:23:38;6.70;;;4.90;;
44440;SDS011;30146;52.268;20.944;2023-08-31T03:26:07;7.10;;;5.10;;
44440;SDS011;30146;52.268;20.944;2023-08-31T03:28:36;7.80;;;5.90;;
44440;SDS011;30146;52.268;20.944;2023-08-31T03:31:07;6.10;;;4.70;;
44440;SDS011;30146;52.268;20.944;2023-08-31T03:33:36;5.80;;;5.20;;
44440;SDS011;30146;52.268;20.944;2023-08-31T03:36:05;7.00;;;4.40;;
44440;SDS011;30146;52.268;20.944;2023-08-31T03:38:33;6.70;;;4.20;;
44440;SDS011;30146;52.268;20.944;2023-08-31T03:41:04;5.70;;;4.90;;
44440;SDS011;30146;52.268;20.944;2023-08-31T03:43:32;4.60;;;4.20;;
44440;SDS011;30146;52.268;20.944;2023-08-31T03:46:01;5.70;;;4.80;;
44440;SDS011;30146;52.268;20.944;2023-08-31T03:48:29;4.60;;;4.10;;
44440;SDS011;30146;52.268;20.944;2023-08-31T03:50:57;5.50;;;4.30;;
44440;SDS011;30146;52.268;20.944;2023-08-31T03:53:26;8.70;;;5.80;;
44440;SDS011;30146;52.268;20.944;2023-08-31T03:55:56;5.70;;;4.80;;
44440;SDS011;30146;52.268;20.944;2023-08-31T03:58:25;5.80;;;3.80;;
44440;SDS011;30146;52.268;20.944;2023-08-31T04:00:54;15.80;;;3.60;;
44440;SDS011;30146;52.268;20.944;2023-08-31T04:03:22;4.80;;;3.50;;
44440;SDS011;30146;52.268;20.944;2023-08-31T04:05:54;3.90;;;3.50;;
44440;SDS011;30146;52.268;20.944;2023-08-31T04:08:22;7.80;;;3.50;;
44440;SDS011;30146;52.268;20.944;2023-08-31T04:10:51;5.50;;;3.40;;
44440;SDS011;30146;52.268;20.944;2023-08-31T04:13:20;5.30;;;3.90;;
44440;SDS011;30146;52.268;20.944;2023-08-31T04:15:49;3.90;;;3.60;;
44440;SDS011;30146;52.268;20.944;2023-08-31T04:18:19;4.10;;;3.50;;
44440;SDS011;30146;52.268;20.944;2023-08-31T04:20:49;3.80;;;3.30;;
44440;SDS011;30146;52.268;20.944;2023-08-31T04:23:19;8.60;;;3.50;;
44440;SDS011;30146;52.268;20.944;2023-08-31T04:25:47;3.40;;;3.10;;
44440;SDS011;30146;52.268;20.944;2023-08-31T04:28:18;6.40;;;3.40;;
44440;SDS011;30146;52.268;20.944;2023-08-31T04:30:46;7.70;;;6.20;;
44440;SDS011;30146;52.268;20.944;2023-08-31T04:33:16;4.90;;;3.30;;
44440;SDS011;30146;52.268;20.944;2023-08-31T04:35:45;3.50;;;2.90;;
44440;SDS011;30146;52.268;20.944;2023-08-31T04:38:13;4.00;;;2.90;;
44440;SDS011;30146;52.268;20.944;2023-08-31T04:40:41;6.80;;;3.00;;
44440;SDS011;30146;52.268;20.944;2023-08-31T04:43:10;3.60;;;2.60;;
44440;SDS011;30146;52.268;20.944;2023-08-31T04:45:39;3.60;;;2.80;;
44440;SDS011;30146;52.268;20.944;2023-08-31T04:48:08;3.50;;;3.20;;
44440;SDS011;30146;52.268;20.944;2023-08-31T04:50:36;3.30;;;2.70;;
44440;SDS011;30146;52.268;20.944;2023-08-31T04:53:07;3.80;;;3.00;;
44440;SDS011;30146;52.268;20.944;2023-08-31T04:55:35;6.70;;;2.90;;
44440;SDS011;30146;52.268;20.944;2023-08-31T04:58:04;4.70;;;2.70;;
44440;SDS011;30146;52.268;20.944;2023-08-31T05:00:32;3.80;;;2.50;;
44440;SDS011;30146;52.268;20.944;2023-08-31T05:03:01;3.20;;;2.50;;
44440;SDS011;30146;52.268;20.944;2023-08-31T05:05:29;5.10;;;2.50;;
44440;SDS011;30146;52.268;20.944;2023-08-31T05:08:00;3.20;;;2.70;;
44440;SDS011;30146;52.268;20.944;2023-08-31T05:10:29;3.20;;;2.30;;
44440;SDS011;30146;52.268;20.944;2023-08-31T05:12:57;6.30;;;2.60;;
44440;SDS011;30146;52.268;20.944;2023-08-31T05:15:26;2.20;;;1.90;;
44440;SDS011;30146;52.268;20.944;2023-08-31T05:17:55;2.80;;;2.10;;
44440;SDS011;30146;52.268;20.944;2023-08-31T05:20:24;5.70;;;2.30;;
44440;SDS011;30146;52.268;20.944;2023-08-31T05:22:52;2.70;;;2.20;;
44440;SDS011;30146;52.268;20.944;2023-08-31T05:25:20;6.00;;;2.10;;
44440;SDS011;30146;52.268;20.944;2023-08-31T05:27:49;6.20;;;2.40;;
44440;SDS011;30146;52.268;20.944;2023-08-31T05:30:17;5.20;;;2.40;;
44440;SDS011;30146;52.268;20.944;2023-08-31T05:32:45;4.00;;;1.80;;
44440;SDS011;30146;52.268;20.944;2023-08-31T05:35:14;2.60;;;1.80;;
44440;SDS011;30146;52.268;20.944;2023-08-31T05:40:16;5.50;;;1.90;;
44440;SDS011;30146;52.268;20.944;2023-08-31T05:42:45;5.10;;;1.90;;
44440;SDS011;30146;52.268;20.944;2023-08-31T05:45:13;4.60;;;1.80;;
44440;SDS011;30146;52.268;20.944;2023-08-31T05:47:42;2.40;;;1.70;;
44440;SDS011;30146;52.268;20.944;2023-08-31T05:50:10;2.90;;;1.70;;
44440;SDS011;30146;52.268;20.944;2023-08-31T05:52:39;2.70;;;1.50;;
44440;SDS011;30146;52.268;20.944;2023-08-31T05:55:10;2.70;;;1.70;;
44440;SDS011;30146;52.268;20.944;2023-08-31T05:57:39;1.80;;;1.50;;
44440;SDS011;30146;52.268;20.944;2023-08-31T06:00:08;5.60;;;2.00;;
44440;SDS011;30146;52.268;20.944;2023-08-31T06:02:41;3.00;;;1.80;;
44440;SDS011;30146;52.268;20.944;2023-08-31T06:08:05;2.80;;;2.00;;
44440;SDS011;30146;52.268;20.944;2023-08-31T06:10:33;3.30;;;1.50;;
44440;SDS011;30146;52.268;20.944;2023-08-31T06:13:02;2.70;;;2.20;;
44440;SDS011;30146;52.268;20.944;2023-08-31T06:15:30;3.90;;;1.80;;
44440;SDS011;30146;52.268;20.944;2023-08-31T06:17:59;4.90;;;2.20;;
44440;SDS011;30146;52.268;20.944;2023-08-31T06:20:30;9.00;;;2.50;;
44440;SDS011;30146;52.268;20.944;2023-08-31T06:22:59;2.90;;;2.40;;
44440;SDS011;30146;52.268;20.944;2023-08-31T06:25:27;4.60;;;2.10;;
44440;SDS011;30146;52.268;20.944;2023-08-31T06:27:55;4.00;;;2.20;;
44440;SDS011;30146;52.268;20.944;2023-08-31T06:30:23;2.40;;;1.80;;
44440;SDS011;30146;52.268;20.944;2023-08-31T06:32:52;3.90;;;2.00;;
44440;SDS011;30146;52.268;20.944;2023-08-31T06:35:22;3.50;;;2.10;;
44440;SDS011;30146;52.268;20.944;2023-08-31T06:37:54;7.60;;;2.20;;
44440;SDS011;30146;52.268;20.944;2023-08-31T06:40:24;2.70;;;1.90;;
44440;SDS011;30146;52.268;20.944;2023-08-31T06:42:53;3.10;;;2.00;;
44440;SDS011;30146;52.268;20.944;2023-08-31T06:45:21;5.50;;;2.00;;
44440;SDS011;30146;52.268;20.944;2023-08-31T06:47:50;2.50;;;1.40;;
44440;SDS011;30146;52.268;20.944;2023-08-31T06:50:18;4.30;;;1.80;;
44440;SDS011;30146;52.268;20.944;2023-08-31T06:52:47;5.20;;;1.90;;
44440;SDS011;30146;52.268;20.944;2023-08-31T06:58:09;1.90;;;1.50;;
44440;SDS011;30146;52.268;20.944;2023-08-31T07:00:38;3.00;;;1.50;;
44440;SDS011;30146;52.268;20.944;2023-08-31T07:03:06;4.80;;;1.60;;
44440;SDS011;30146;52.268;20.944;2023-08-31T07:05:36;2.70;;;1.70;;
44440;SDS011;30146;52.268;20.944;2023-08-31T07:08:10;2.20;;;1.80;;
44440;SDS011;30146;52.268;20.944;2023-08-31T07:10:38;2.50;;;1.50;;
44440;SDS011;30146;52.268;20.944;2023-08-31T07:13:07;2.30;;;1.70;;
44440;SDS011;30146;52.268;20.944;2023-08-31T07:15:36;2.70;;;1.90;;
44440;SDS011;30146;52.268;20.944;2023-08-31T07:18:05;2.40;;;1.80;;
44440;SDS011;30146;52.268;20.944;2023-08-31T07:20:36;2.10;;;1.90;;
44440;SDS011;30146;52.268;20.944;2023-08-31T07:23:05;2.60;;;1.80;;
44440;SDS011;30146;52.268;20.944;2023-08-31T07:25:36;11.20;;;2.00;;
44440;SDS011;30146;52.268;20.944;2023-08-31T07:28:05;29.50;;;3.80;;
44440;SDS011;30146;52.268;20.944;2023-08-31T07:30:34;33.30;;;3.50;;
44440;SDS011;30146;52.268;20.944;2023-08-31T07:33:03;11.40;;;2.00;;
44440;SDS011;30146;52.268;20.944;2023-08-31T07:35:43;4.10;;;1.90;;
44440;SDS011;30146;52.268;20.944;2023-08-31T07:38:15;7.20;;;2.00;;
44440;SDS011;30146;52.268;20.944;2023-08-31T07:40:43;3.50;;;1.80;;
44440;SDS011;30146;52.268;20.944;2023-08-31T07:43:12;3.00;;;1.80;;
44440;SDS011;30146;52.268;20.944;2023-08-31T07:45:41;3.80;;;1.80;;
44440;SDS011;30146;52.268;20.944;2023-08-31T07:48:10;4.20;;;2.10;;
44440;SDS011;30146;52.268;20.944;2023-08-31T07:50:39;4.80;;;1.70;;
44440;SDS011;30146;52.268;20.944;2023-08-31T07:53:08;7.50;;;1.60;;
44440;SDS011;30146;52.268;20.944;2023-08-31T07:55:39;3.40;;;1.70;;
44440;SDS011;30146;52.268;20.944;2023-08-31T07:58:08;4.20;;;1.70;;
44440;SDS011;30146;52.268;20.944;2023-08-31T08:00:36;5.00;;;1.80;;
44440;SDS011;30146;52.268;20.944;2023-08-31T08:03:05;2.70;;;1.60;;
44440;SDS011;30146;52.268;20.944;2023-08-31T08:05:34;4.30;;;1.40;;
44440;SDS011;30146;52.268;20.944;2023-08-31T08:08:03;2.60;;;1.30;;
44440;SDS011;30146;52.268;20.944;2023-08-31T08:10:31;5.30;;;2.20;;
44440;SDS011;30146;52.268;20.944;2023-08-31T08:13:00;2.60;;;1.30;;
44440;SDS011;30146;52.268;20.944;2023-08-31T08:15:32;3.50;;;1.50;;
44440;SDS011;30146;52.268;20.944;2023-08-31T08:18:04;4.50;;;1.40;;
44440;SDS011;30146;52.268;20.944;2023-08-31T08:20:32;2.60;;;1.60;;
44440;SDS011;30146;52.268;20.944;2023-08-31T08:23:01;2.90;;;1.80;;
44440;SDS011;30146;52.268;20.944;2023-08-31T08:25:30;2.70;;;1.70;;
44440;SDS011;30146;52.268;20.944;2023-08-31T08:28:10;3.40;;;1.70;;
44440;SDS011;30146;52.268;20.944;2023-08-31T08:30:43;5.00;;;1.20;;
44440;SDS011;30146;52.268;20.944;2023-08-31T08:33:12;2.00;;;1.30;;
44440;SDS011;30146;52.268;20.944;2023-08-31T08:35:41;2.80;;;1.30;;
44440;SDS011;30146;52.268;20.944;2023-08-31T08:38:10;5.70;;;2.00;;
44440;SDS011;30146;52.268;20.944;2023-08-31T08:40:44;1.50;;;1.10;;
44440;SDS011;30146;52.268;20.944;2023-08-31T08:43:13;2.00;;;1.30;;
44440;SDS011;30146;52.268;20.944;2023-08-31T08:45:42;2.50;;;1.40;;
44440;SDS011;30146;52.268;20.944;2023-08-31T08:48:13;2.30;;;1.40;;
44440;SDS011;30146;52.268;20.944;2023-08-31T08:50:43;4.20;;;1.40;;
44440;SDS011;30146;52.268;20.944;2023-08-31T08:53:12;2.80;;;1.40;;
44440;SDS011;30146;52.268;20.944;2023-08-31T08:55:42;5.60;;;1.70;;
44440;SDS011;30146;52.268;20.944;2023-08-31T08:58:10;2.20;;;1.70;;
44440;SDS011;30146;52.268;20.944;2023-08-31T09:00:38;7.50;;;1.40;;
44440;SDS011;30146;52.268;20.944;2023-08-31T09:03:08;4.10;;;1.30;;
44440;SDS011;30146;52.268;20.944;2023-08-31T09:05:37;6.10;;;1.70;;
44440;SDS011;30146;52.268;20.944;2023-08-31T09:08:07;3.20;;;1.90;;
44440;SDS011;30146;52.268;20.944;2023-08-31T09:10:38;3.80;;;1.80;;
44440;SDS011;30146;52.268;20.944;2023-08-31T09:13:15;5.90;;;2.00;;
44440;SDS011;30146;52.268;20.944;2023-08-31T09:15:56;3.30;;;1.80;;
44440;SDS011;30146;52.268;20.944;2023-08-31T09:18:26;7.10;;;1.80;;
44440;SDS011;30146;52.268;20.944;2023-08-31T09:20:56;2.40;;;1.70;;
44440;SDS011;30146;52.268;20.944;2023-08-31T09:23:25;4.00;;;1.90;;
44440;SDS011;30146;52.268;20.944;2023-08-31T09:25:55;2.80;;;1.80;;
44440;SDS011;30146;52.268;20.944;2023-08-31T09:28:24;2.70;;;1.60;;
44440;SDS011;30146;52.268;20.944;2023-08-31T09:31:03;3.10;;;2.00;;
44440;SDS011;30146;52.268;20.944;2023-08-31T09:36:25;5.50;;;2.00;;
44440;SDS011;30146;52.268;20.944;2023-08-31T09:38:57;2.60;;;1.60;;
44440;SDS011;30146;52.268;20.944;2023-08-31T09:41:26;4.80;;;1.70;;
44440;SDS011;30146;52.268;20.944;2023-08-31T09:43:56;2.70;;;1.60;;
44440;SDS011;30146;52.268;20.944;2023-08-31T09:46:43;2.40;;;1.70;;
44440;SDS011;30146;52.268;20.944;2023-08-31T09:49:14;3.60;;;1.80;;
44440;SDS011;30146;52.268;20.944;2023-08-31T09:51:44;3.60;;;1.50;;
44440;SDS011;30146;52.268;20.944;2023-08-31T09:54:17;3.80;;;1.80;;
44440;SDS011;30146;52.268;20.944;2023-08-31T09:56:50;3.50;;;1.50;;
44440;SDS011;30146;52.268;20.944;2023-08-31T09:59:29;5.30;;;1.40;;
44440;SDS011;30146;52.268;20.944;2023-08-31T10:02:00;3.90;;;1.50;;
44440;SDS011;30146;52.268;20.944;2023-08-31T10:04:30;3.30;;;1.80;;
44440;SDS011;30146;52.268;20.944;2023-08-31T10:07:00;3.20;;;1.80;;
44440;SDS011;30146;52.268;20.944;2023-08-31T10:09:37;3.00;;;1.60;;
44440;SDS011;30146;52.268;20.944;2023-08-31T10:12:08;3.70;;;1.60;;
44440;SDS011;30146;52.268;20.944;2023-08-31T10:14:51;3.50;;;1.30;;
44440;SDS011;30146;52.268;20.944;2023-08-31T10:17:32;7.70;;;2.00;;
44440;SDS011;30146;52.268;20.944;2023-08-31T10:20:01;3.10;;;1.90;;
44440;SDS011;30146;52.268;20.944;2023-08-31T10:22:31;1.60;;;1.40;;
44440;SDS011;30146;52.268;20.944;2023-08-31T10:25:01;4.30;;;1.70;;
44440;SDS011;30146;52.268;20.944;2023-08-31T10:27:39;8.90;;;2.10;;
44440;SDS011;30146;52.268;20.944;2023-08-31T10:35:52;3.20;;;1.90;;
44440;SDS011;30146;52.268;20.944;2023-08-31T10:38:25;2.90;;;1.80;;
44440;SDS011;30146;52.268;20.944;2023-08-31T10:41:03;2.70;;;1.80;;
44440;SDS011;30146;52.268;20.944;2023-08-31T10:43:52;3.00;;;1.70;;
44440;SDS011;30146;52.268;20.944;2023-08-31T10:46:28;2.60;;;2.10;;
44440;SDS011;30146;52.268;20.944;2023-08-31T10:48:57;7.80;;;1.70;;
44440;SDS011;30146;52.268;20.944;2023-08-31T10:51:28;3.60;;;2.00;;
44440;SDS011;30146;52.268;20.944;2023-08-31T10:54:08;3.40;;;1.80;;
44440;SDS011;30146;52.268;20.944;2023-08-31T10:56:55;3.60;;;1.90;;
44440;SDS011;30146;52.268;20.944;2023-08-31T10:59:42;3.90;;;2.20;;
44440;SDS011;30146;52.268;20.944;2023-08-31T11:04:56;2.70;;;2.20;;
44440;SDS011;30146;52.268;20.944;2023-08-31T11:10:14;2.30;;;2.00;;
44440;SDS011;30146;52.268;20.944;2023-08-31T11:12:44;4.70;;;1.80;;
44440;SDS011;30146;52.268;20.944;2023-08-31T11:15:14;2.90;;;2.30;;
44440;SDS011;30146;52.268;20.944;2023-08-31T11:17:43;5.80;;;2.10;;
44440;SDS011;30146;52.268;20.944;2023-08-31T11:20:14;2.80;;;2.10;;
44440;SDS011;30146;52.268;20.944;2023-08-31T11:22:45;3.10;;;2.50;;
44440;SDS011;30146;52.268;20.944;2023-08-31T11:25:16;3.00;;;2.00;;
44440;SDS011;30146;52.268;20.944;2023-08-31T11:27:53;4.60;;;2.40;;
44440;SDS011;30146;52.268;20.944;2023-08-31T11:30:22;5.20;;;2.30;;
44440;SDS011;30146;52.268;20.944;2023-08-31T11:32:51;5.00;;;2.40;;
44440;SDS011;30146;52.268;20.944;2023-08-31T11:35:21;3.60;;;2.40;;
44440;SDS011;30146;52.268;20.944;2023-08-31T11:37:52;2.80;;;2.00;;
44440;SDS011;30146;52.268;20.944;2023-08-31T11:40:22;3.10;;;2.20;;
44440;SDS011;30146;52.268;20.944;2023-08-31T11:42:53;5.40;;;4.20;;
44440;SDS011;30146;52.268;20.944;2023-08-31T11:45:21;3.20;;;2.30;;
44440;SDS011;30146;52.268;20.944;2023-08-31T11:47:51;4.20;;;2.40;;
44440;SDS011;30146;52.268;20.944;2023-08-31T11:50:20;4.10;;;2.60;;
44440;SDS011;30146;52.268;20.944;2023-08-31T11:52:51;2.70;;;2.10;;
44440;SDS011;30146;52.268;20.944;2023-08-31T11:55:20;5.10;;;2.30;;
44440;SDS011;30146;52.268;20.944;2023-08-31T11:57:50;3.40;;;2.20;;
44440;SDS011;30146;52.268;20.944;2023-08-31T12:00:19;2.80;;;2.10;;
44440;SDS011;30146;52.268;20.944;2023-08-31T12:02:56;6.00;;;2.40;;
44440;SDS011;30146;52.268;20.944;2023-08-31T12:05:25;5.30;;;3.80;;
44440;SDS011;30146;52.268;20.944;2023-08-31T12:07:54;6.70;;;2.50;;
44440;SDS011;30146;52.268;20.944;2023-08-31T12:10:24;3.70;;;2.00;;
44440;SDS011;30146;52.268;20.944;2023-08-31T12:12:54;4.20;;;2.70;;
44440;SDS011;30146;52.268;20.944;2023-08-31T12:15:36;3.50;;;3.00;;
44440;SDS011;30146;52.268;20.944;2023-08-31T12:18:07;4.00;;;2.80;;
44440;SDS011;30146;52.268;20.944;2023-08-31T12:20:43;4.50;;;2.40;;
44440;SDS011;30146;52.268;20.944;2023-08-31T12:23:12;5.90;;;2.40;;
44440;SDS011;30146;52.268;20.944;2023-08-31T12:25:45;7.20;;;4.00;;
44440;SDS011;30146;52.268;20.944;2023-08-31T12:28:14;5.20;;;3.70;;
44440;SDS011;30146;52.268;20.944;2023-08-31T12:30:48;2.90;;;2.60;;
44440;SDS011;30146;52.268;20.944;2023-08-31T12:33:17;3.30;;;3.00;;
44440;SDS011;30146;52.268;20.944;2023-08-31T12:35:47;3.00;;;2.60;;
44440;SDS011;30146;52.268;20.944;2023-08-31T12:38:16;7.00;;;3.00;;
44440;SDS011;30146;52.268;20.944;2023-08-31T12:40:45;3.50;;;2.60;;
44440;SDS011;30146;52.268;20.944;2023-08-31T12:43:14;3.30;;;2.50;;
44440;SDS011;30146;52.268;20.944;2023-08-31T12:45:44;3.90;;;2.70;;
44440;SDS011;30146;52.268;20.944;2023-08-31T12:48:12;4.90;;;2.60;;
44440;SDS011;30146;52.268;20.944;2023-08-31T12:50:41;6.30;;;4.50;;
44440;SDS011;30146;52.268;20.944;2023-08-31T12:53:09;4.90;;;2.90;;
44440;SDS011;30146;52.268;20.944;2023-08-31T12:55:38;8.80;;;3.00;;
44440;SDS011;30146;52.268;20.944;2023-08-31T12:58:07;3.70;;;2.70;;
44440;SDS011;30146;52.268;20.944;2023-08-31T13:00:36;3.90;;;2.60;;
44440;SDS011;30146;52.268;20.944;2023-08-31T13:03:06;9.00;;;3.00;;
44440;SDS011;30146;52.268;20.944;2023-08-31T13:05:38;6.00;;;2.40;;
44440;SDS011;30146;52.268;20.944;2023-08-31T13:08:11;4.60;;;2.80;;
44440;SDS011;30146;52.268;20.944;2023-08-31T13:10:41;3.50;;;2.50;;
44440;SDS011;30146;52.268;20.944;2023-08-31T13:13:10;8.60;;;2.70;;
44440;SDS011;30146;52.268;20.944;2023-08-31T13:15:39;6.50;;;3.30;;
44440;SDS011;30146;52.268;20.944;2023-08-31T13:18:08;9.80;;;3.00;;
44440;SDS011;30146;52.268;20.944;2023-08-31T13:20:37;5.20;;;2.60;;
44440;SDS011;30146;52.268;20.944;2023-08-31T13:23:06;5.70;;;3.10;;
44440;SDS011;30146;52.268;20.944;2023-08-31T13:25:35;4.30;;;2.80;;
44440;SDS011;30146;52.268;20.944;2023-08-31T13:28:04;4.20;;;2.70;;
44440;SDS011;30146;52.268;20.944;2023-08-31T13:30:33;4.90;;;2.90;;
44440;SDS011;30146;52.268;20.944;2023-08-31T13:33:02;6.20;;;2.70;;
44440;SDS011;30146;52.268;20.944;2023-08-31T13:35:31;4.30;;;2.80;;
44440;SDS011;30146;52.268;20.944;2023-08-31T13:38:00;5.70;;;3.00;;
44440;SDS011;30146;52.268;20.944;2023-08-31T13:40:30;4.50;;;2.70;;
44440;SDS011;30146;52.268;20.944;2023-08-31T13:43:05;4.80;;;2.50;;
44440;SDS011;30146;52.268;20.944;2023-08-31T13:49:24;4.10;;;2.60;;
44440;SDS011;30146;52.268;20.944;2023-08-31T13:51:53;5.20;;;2.70;;
44440;SDS011;30146;52.268;20.944;2023-08-31T13:54:21;3.60;;;2.60;;
44440;SDS011;30146;52.268;20.944;2023-08-31T13:59:58;4.30;;;3.00;;
44440;SDS011;30146;52.268;20.944;2023-08-31T14:02:29;7.60;;;2.80;;
44440;SDS011;30146;52.268;20.944;2023-08-31T14:04:58;4.60;;;2.80;;
44440;SDS011;30146;52.268;20.944;2023-08-31T14:07:27;8.10;;;3.30;;
44440;SDS011;30146;52.268;20.944;2023-08-31T14:09:56;4.40;;;2.70;;
44440;SDS011;30146;52.268;20.944;2023-08-31T14:12:25;4.50;;;3.00;;
44440;SDS011;30146;52.268;20.944;2023-08-31T14:14:53;5.20;;;2.80;;
44440;SDS011;30146;52.268;20.944;2023-08-31T14:17:31;5.00;;;2.70;;
44440;SDS011;30146;52.268;20.944;2023-08-31T14:20:03;6.30;;;3.20;;
44440;SDS011;30146;52.268;20.944;2023-08-31T14:22:35;4.80;;;3.10;;
44440;SDS011;30146;52.268;20.944;2023-08-31T14:29:00;6.30;;;3.50;;
44440;SDS011;30146;52.268;20.944;2023-08-31T14:31:32;6.20;;;3.70;;
44440;SDS011;30146;52.268;20.944;2023-08-31T14:34:02;6.70;;;3.60;;
44440;SDS011;30146;52.268;20.944;2023-08-31T14:36:31;5.90;;;3.50;;
44440;SDS011;30146;52.268;20.944;2023-08-31T14:39:01;9.00;;;3.90;;
44440;SDS011;30146;52.268;20.944;2023-08-31T14:41:30;6.50;;;4.00;;
44440;SDS011;30146;52.268;20.944;2023-08-31T14:43:59;14.50;;;5.70;;
44440;SDS011;30146;52.268;20.944;2023-08-31T14:46:27;8.10;;;4.30;;
44440;SDS011;30146;52.268;20.944;2023-08-31T14:48:56;6.60;;;3.90;;
44440;SDS011;30146;52.268;20.944;2023-08-31T14:51:25;8.00;;;4.40;;
44440;SDS011;30146;52.268;20.944;2023-08-31T14:53:53;5.00;;;4.10;;
44440;SDS011;30146;52.268;20.944;2023-08-31T14:56:22;6.70;;;4.10;;
44440;SDS011;30146;52.268;20.944;2023-08-31T14:58:51;8.40;;;4.70;;
44440;SDS011;30146;52.268;20.944;2023-08-31T15:01:22;7.30;;;4.80;;
44440;SDS011;30146;52.268;20.944;2023-08-31T15:03:54;6.20;;;4.60;;
44440;SDS011;30146;52.268;20.944;2023-08-31T15:06:22;6.50;;;4.50;;
44440;SDS011;30146;52.268;20.944;2023-08-31T15:08:52;8.40;;;5.20;;
44440;SDS011;30146;52.268;20.944;2023-08-31T15:11:24;5.70;;;4.80;;
44440;SDS011;30146;52.268;20.944;2023-08-31T15:13:54;5.10;;;4.40;;
44440;SDS011;30146;52.268;20.944;2023-08-31T15:16:24;6.00;;;5.00;;
44440;SDS011;30146;52.268;20.944;2023-08-31T15:18:53;8.60;;;5.30;;
44440;SDS011;30146;52.268;20.944;2023-08-31T15:21:21;9.20;;;5.70;;
44440;SDS011;30146;52.268;20.944;2023-08-31T15:23:50;7.10;;;5.80;;